Time;durP1;ratioP1;P1;durP2;ratioP2;P2;SDS_P1;SDS_P2;PMS_P1;PMS_P2;Temp;Humidity;BMP_temperature;BMP_pressure;BME280_temperature;BME280_humidity;BME280_pressure;Samples;Min_cycle;Max_cycle;Signal;HPM_P1;HPM_P2
2022/12/14 02:33:40;;;;;;;11.79;7.27;;;;;;;;;;4241917;27;20757;-46
2022/12/14 02:34:47;;;;;;;12.35;6.68;;;;;;;;;;2120934;28;20415;-41
2022/12/14 02:35:50;;;;;;;12.38;7.00;;;;;;;;;;2120861;28;20043;-48
2022/12/14 03:04:11;;;;;;;17.11;10.50;;;;;;;;;;4259234;27;20605;-42
2022/12/14 03:05:12;;;;;;;13.90;8.45;;;;;;;;;;2129861;27;20129;-42
2022/12/14 03:06:15;;;;;;;17.70;8.02;;;;;;;;;;2129981;27;20176;-42
2022/12/14 03:07:31;;;;;;;13.90;8.00;;;;;;;;;;2129726;27;20287;-42
2022/12/14 03:08:34;;;;;;;18.27;8.32;;;;;;;;;;2125571;27;20042;-42
2022/12/14 03:09:35;;;;;;;14.55;8.02;;;;;;;;;;2129808;27;20506;-42
2022/12/14 03:10:39;;;;;;;17.77;8.97;;;;;;;;;;2128962;27;20050;-42
2022/12/14 03:11:43;;;;;;;18.00;9.50;;;;;;;;;;2121307;28;20055;-42
2022/12/14 03:12:47;;;;;;;17.80;9.98;;;;;;;;;;2121187;28;20483;-43
2022/12/14 03:13:50;;;;;;;19.15;10.35;;;;;;;;;;2121236;28;20047;-42
2022/12/14 03:14:53;;;;;;;17.45;9.73;;;;;;;;;;2121351;28;20074;-43
2022/12/14 03:15:56;;;;;;;16.05;8.07;;;;;;;;;;2119736;28;20077;-46
2022/12/14 03:17:00;;;;;;;24.38;11.40;;;;;;;;;;2112494;28;20503;-43
2022/12/14 03:18:03;;;;;;;16.83;10.70;;;;;;;;;;2112765;28;20044;-46
2022/12/14 03:19:07;;;;;;;18.73;10.30;;;;;;;;;;2112025;28;20051;-47
2022/12/14 03:20:10;;;;;;;17.25;9.20;;;;;;;;;;2115311;27;20050;-46
2022/12/14 03:21:14;;;;;;;18.15;10.07;;;;;;;;;;2124931;27;20133;-47
2022/12/14 03:22:17;;;;;;;20.23;9.88;;;;;;;;;;2126840;27;20051;-48
2022/12/14 03:23:21;;;;;;;20.00;10.13;;;;;;;;;;2121130;28;20054;-46
2022/12/14 03:24:23;;;;;;;20.50;11.27;;;;;;;;;;2121243;28;20050;-46
2022/12/14 03:25:27;;;;;;;23.25;11.57;;;;;;;;;;2121122;28;20467;-47
2022/12/14 03:26:32;;;;;;;21.27;10.32;;;;;;;;;;2121100;28;20055;-46
2022/12/14 03:27:35;;;;;;;16.92;9.95;;;;;;;;;;2121136;28;20047;-48
2022/12/14 03:28:39;;;;;;;22.27;11.65;;;;;;;;;;2112534;28;20055;-46
2022/12/14 03:29:42;;;;;;;21.90;10.65;;;;;;;;;;2112636;28;20047;-47
2022/12/14 03:30:46;;;;;;;18.10;9.80;;;;;;;;;;2112715;28;20050;-46
2022/12/14 03:32:04;;;;;;;21.67;10.35;;;;;;;;;;2112479;28;20044;-47
2022/12/14 03:33:06;;;;;;;18.85;9.70;;;;;;;;;;2112716;28;20051;-46
2022/12/14 03:34:09;;;;;;;16.77;9.23;;;;;;;;;;2112564;28;20108;-46
2022/12/14 03:35:16;;;;;;;23.08;12.10;;;;;;;;;;2112648;28;20044;-46
2022/12/14 03:36:19;;;;;;;19.08;10.75;;;;;;;;;;2112531;28;20052;-47
2022/12/14 03:37:25;;;;;;;19.85;11.32;;;;;;;;;;2112546;28;20097;-47
2022/12/14 03:38:31;;;;;;;18.38;10.38;;;;;;;;;;2112569;28;20062;-46
2022/12/14 03:39:33;;;;;;;20.08;9.85;;;;;;;;;;2112702;28;20051;-44
2022/12/14 03:40:36;;;;;;;19.60;10.55;;;;;;;;;;2112612;28;20062;-46
2022/12/14 03:41:41;;;;;;;20.30;11.15;;;;;;;;;;2112495;28;20039;-47
2022/12/14 03:42:47;;;;;;;18.42;9.98;;;;;;;;;;2112490;28;20055;-46
2022/12/14 03:44:00;;;;;;;16.98;9.23;;;;;;;;;;2112607;28;20101;-46
2022/12/14 03:45:04;;;;;;;20.75;9.77;;;;;;;;;;2112600;28;20557;-46
2022/12/14 03:46:10;;;;;;;17.85;9.57;;;;;;;;;;2112525;28;20044;-47
2022/12/14 03:47:16;;;;;;;19.48;11.13;;;;;;;;;;2112615;28;20048;-42
2022/12/14 03:48:25;;;;;;;19.38;9.85;;;;;;;;;;2112726;28;20051;-40
2022/12/14 03:49:31;;;;;;;22.25;11.85;;;;;;;;;;2112670;28;20047;-42
2022/12/14 03:50:37;;;;;;;17.75;11.15;;;;;;;;;;2112680;28;20044;-46
2022/12/14 03:51:39;;;;;;;21.02;11.07;;;;;;;;;;2112453;28;20485;-48
2022/12/14 03:52:44;;;;;;;21.80;13.20;;;;;;;;;;2112260;28;20052;-47
2022/12/14 03:53:46;;;;;;;25.25;15.40;;;;;;;;;;2112565;28;20047;-46
2022/12/14 03:54:50;;;;;;;22.92;11.80;;;;;;;;;;2112430;28;20044;-46
2022/12/14 03:55:54;;;;;;;20.27;11.98;;;;;;;;;;2112479;28;20055;-46
2022/12/14 03:56:56;;;;;;;23.45;11.52;;;;;;;;;;2112358;28;20114;-46
2022/12/14 03:58:09;;;;;;;21.42;11.25;;;;;;;;;;2112483;28;20048;-46
2022/12/14 03:59:12;;;;;;;18.30;10.45;;;;;;;;;;2112455;28;20044;-47
2022/12/14 04:00:15;;;;;;;16.55;9.88;;;;;;;;;;2112798;28;20052;-42
2022/12/14 04:01:19;;;;;;;18.48;10.63;;;;;;;;;;2112475;28;20065;-42
2022/12/14 04:02:21;;;;;;;16.77;9.52;;;;;;;;;;2117088;28;20047;-42
2022/12/14 04:03:27;;;;;;;16.77;11.18;;;;;;;;;;2120494;28;20048;-42
2022/12/14 04:04:32;;;;;;;16.35;9.50;;;;;;;;;;2114936;28;20085;-42
2022/12/14 04:05:38;;;;;;;18.77;10.02;;;;;;;;;;2115001;28;20096;-42
2022/12/14 04:06:49;;;;;;;19.30;10.55;;;;;;;;;;2115381;28;20050;-42
2022/12/14 04:07:54;;;;;;;17.00;9.65;;;;;;;;;;2115113;28;20096;-42
2022/12/14 04:09:00;;;;;;;19.85;11.23;;;;;;;;;;2115321;28;20040;-42
2022/12/14 04:18:55;;;;;;;18.40;10.05;;;;;;;;;;2115337;28;20043;-42
2022/12/14 04:19:37;;;;;;;18.20;10.93;;;;;;;;;;2113550;28;20044;-42
2022/12/14 04:20:41;;;;;;;21.20;12.25;;;;;;;;;;2115020;28;20048;-42
2022/12/14 04:21:43;;;;;;;22.42;12.02;;;;;;;;;;2115074;28;20056;-42
2022/12/14 04:22:46;;;;;;;26.92;14.85;;;;;;;;;;2114906;28;20051;-42
2022/12/14 04:26:34;;;;;;;31.50;16.23;;;;;;;;;;2115151;28;20051;-42
2022/12/14 04:27:36;;;;;;;39.40;19.23;;;;;;;;;;2115304;28;20050;-42
2022/12/14 04:30:00;;;;;;;35.80;16.83;;;;;;;;;;2115140;28;20043;-42
2022/12/14 04:31:02;;;;;;;31.98;16.45;;;;;;;;;;2115193;28;20047;-47
2022/12/14 04:32:07;;;;;;;31.52;15.88;;;;;;;;;;2114918;28;20047;-46
2022/12/14 04:34:27;;;;;;;33.58;15.30;;;;;;;;;;2114339;28;20051;-46
2022/12/14 04:35:32;;;;;;;28.85;14.95;;;;;;;;;;2114820;28;20047;-46
2022/12/14 04:36:37;;;;;;;27.73;15.35;;;;;;;;;;2114988;28;20412;-46
2022/12/14 04:37:40;;;;;;;31.02;14.60;;;;;;;;;;2114882;28;20508;-46
2022/12/14 04:38:41;;;;;;;26.50;13.40;;;;;;;;;;2114850;28;20530;-46
2022/12/14 04:39:45;;;;;;;27.45;14.10;;;;;;;;;;2115018;28;20606;-45
2022/12/14 04:40:48;;;;;;;25.52;13.57;;;;;;;;;;2115100;28;20040;-46
2022/12/14 04:41:52;;;;;;;22.45;12.73;;;;;;;;;;2114842;28;20393;-47
2022/12/14 04:42:54;;;;;;;20.90;12.15;;;;;;;;;;2114934;28;20144;-46
2022/12/14 04:43:57;;;;;;;21.02;12.13;;;;;;;;;;2114854;28;20043;-46
2022/12/14 04:45:01;;;;;;;22.55;11.27;;;;;;;;;;2114903;28;20495;-46
2022/12/14 04:46:05;;;;;;;20.45;10.82;;;;;;;;;;2114907;28;20052;-46
2022/12/14 04:47:08;;;;;;;20.58;11.45;;;;;;;;;;2114882;28;20047;-45
2022/12/14 04:48:19;;;;;;;19.88;11.45;;;;;;;;;;2115094;28;20379;-47
2022/12/14 04:49:23;;;;;;;20.10;10.48;;;;;;;;;;2115062;28;20047;-46
2022/12/14 04:50:26;;;;;;;20.77;10.43;;;;;;;;;;2115004;28;20055;-46
2022/12/14 04:51:30;;;;;;;17.45;10.18;;;;;;;;;;2114791;28;20124;-46
2022/12/14 04:52:33;;;;;;;17.98;10.15;;;;;;;;;;2114937;28;20047;-45
2022/12/14 04:53:36;;;;;;;18.23;9.80;;;;;;;;;;2115027;28;20043;-46
2022/12/14 04:54:40;;;;;;;17.90;9.70;;;;;;;;;;2115024;28;20052;-46
2022/12/14 04:55:42;;;;;;;19.80;10.38;;;;;;;;;;2114841;28;20051;-46
2022/12/14 04:56:47;;;;;;;18.77;9.77;;;;;;;;;;2114765;28;20043;-46
2022/12/14 04:57:51;;;;;;;16.80;9.73;;;;;;;;;;2114815;28;20044;-46
2022/12/14 04:58:52;;;;;;;19.83;10.48;;;;;;;;;;2114705;28;20040;-46
2022/12/14 04:59:54;;;;;;;19.88;9.73;;;;;;;;;;2114730;28;20097;-46
2022/12/14 05:01:05;;;;;;;17.48;9.18;;;;;;;;;;2114847;28;20503;-47
2022/12/14 05:02:14;;;;;;;18.90;9.82;;;;;;;;;;2114496;28;20450;-46
2022/12/14 05:03:19;;;;;;;17.05;8.70;;;;;;;;;;2114763;28;20518;-46
2022/12/14 05:04:24;;;;;;;18.65;9.75;;;;;;;;;;2114872;28;20051;-47
2022/12/14 05:05:29;;;;;;;19.85;10.38;;;;;;;;;;2114962;28;20054;-46
2022/12/14 05:06:33;;;;;;;20.77;10.25;;;;;;;;;;2114675;28;20051;-46
2022/12/14 05:07:43;;;;;;;18.15;9.60;;;;;;;;;;2114651;28;20462;-47
2022/12/14 05:09:07;;;;;;;18.23;9.48;;;;;;;;;;2114676;28;20483;-46
2022/12/14 05:10:10;;;;;;;17.70;8.70;;;;;;;;;;2114615;28;20044;-46
2022/12/14 05:11:15;;;;;;;19.92;11.07;;;;;;;;;;2114723;28;20044;-47
2022/12/14 05:12:39;;;;;;;17.20;9.63;;;;;;;;;;2114546;28;20419;-47
2022/12/14 05:13:42;;;;;;;18.40;10.15;;;;;;;;;;2114925;28;20052;-46
2022/12/14 05:14:51;;;;;;;20.42;10.93;;;;;;;;;;2114716;28;20399;-47
2022/12/14 05:15:53;;;;;;;20.25;10.82;;;;;;;;;;2113670;28;20035;-47
2022/12/14 05:16:54;;;;;;;19.30;10.00;;;;;;;;;;2114719;28;20050;-46
2022/12/14 05:17:56;;;;;;;20.15;10.30;;;;;;;;;;2114649;28;20080;-46
2022/12/14 05:18:56;;;;;;;20.80;10.27;;;;;;;;;;2114901;28;20044;-46
2022/12/14 05:19:58;;;;;;;18.80;10.40;;;;;;;;;;2114788;28;20097;-47
2022/12/14 05:20:59;;;;;;;17.02;9.07;;;;;;;;;;2114704;28;20039;-47
2022/12/14 05:22:02;;;;;;;17.63;10.05;;;;;;;;;;2114636;28;20498;-46
2022/12/14 05:23:04;;;;;;;17.70;10.05;;;;;;;;;;2114662;28;20047;-46
2022/12/14 05:24:06;;;;;;;17.02;8.52;;;;;;;;;;2114761;28;20059;-46
2022/12/14 05:25:07;;;;;;;18.40;9.65;;;;;;;;;;2114645;28;20477;-47
2022/12/14 05:26:08;;;;;;;18.02;9.65;;;;;;;;;;2114806;28;20059;-46
2022/12/14 05:27:09;;;;;;;16.80;8.83;;;;;;;;;;2114676;28;20040;-46
2022/12/14 05:28:10;;;;;;;15.93;8.90;;;;;;;;;;2114650;28;20511;-47
2022/12/14 05:29:11;;;;;;;16.00;8.77;;;;;;;;;;2114676;28;20052;-46
2022/12/14 05:30:12;;;;;;;16.17;9.07;;;;;;;;;;2114538;28;20051;-46
2022/12/14 05:31:14;;;;;;;16.27;9.68;;;;;;;;;;2114774;28;20051;-46
2022/12/14 05:32:15;;;;;;;14.65;8.27;;;;;;;;;;2114731;28;20043;-46
2022/12/14 05:33:17;;;;;;;19.00;9.60;;;;;;;;;;2114680;28;20051;-46
2022/12/14 05:34:19;;;;;;;13.32;7.63;;;;;;;;;;2114725;28;20194;-46
2022/12/14 05:35:20;;;;;;;18.30;9.55;;;;;;;;;;2114906;28;20052;-42
2022/12/14 05:36:21;;;;;;;15.93;8.55;;;;;;;;;;2114728;28;20043;-46
2022/12/14 05:37:22;;;;;;;15.77;8.70;;;;;;;;;;2114724;28;20051;-46
2022/12/14 05:38:24;;;;;;;14.93;8.00;;;;;;;;;;2114557;28;20051;-46
2022/12/14 05:39:25;;;;;;;15.80;8.70;;;;;;;;;;2114486;28;20445;-46
2022/12/14 05:40:26;;;;;;;18.45;9.23;;;;;;;;;;2114618;28;20051;-46
2022/12/14 05:41:27;;;;;;;19.03;10.50;;;;;;;;;;2114834;28;20433;-46
2022/12/14 05:42:28;;;;;;;23.45;10.70;;;;;;;;;;2114378;28;20059;-46
2022/12/14 05:43:29;;;;;;;21.37;11.17;;;;;;;;;;2114579;28;20069;-46
2022/12/14 05:44:30;;;;;;;23.70;11.52;;;;;;;;;;2114661;28;20276;-42
2022/12/14 05:45:32;;;;;;;22.42;10.68;;;;;;;;;;2114783;28;20054;-46
2022/12/14 05:46:33;;;;;;;26.13;11.70;;;;;;;;;;2114494;28;20447;-47
2022/12/14 05:47:34;;;;;;;27.52;13.18;;;;;;;;;;2114436;28;20040;-47
2022/12/14 05:48:35;;;;;;;26.48;13.15;;;;;;;;;;2114860;28;20047;-42
2022/12/14 05:49:36;;;;;;;25.07;12.47;;;;;;;;;;2114550;28;20079;-42
2022/12/14 05:50:37;;;;;;;27.73;13.23;;;;;;;;;;2114708;28;20052;-42
2022/12/14 05:51:38;;;;;;;33.57;14.97;;;;;;;;;;2114570;28;20054;-42
2022/12/14 05:52:39;;;;;;;31.98;15.73;;;;;;;;;;2114706;28;20511;-47
2022/12/14 05:53:41;;;;;;;37.58;17.23;;;;;;;;;;2114543;28;20135;-46
2022/12/14 05:54:41;;;;;;;32.13;15.90;;;;;;;;;;2110412;28;20093;-46
2022/12/14 05:55:45;;;;;;;34.35;16.35;;;;;;;;;;2106372;28;20044;-42
2022/12/14 05:56:49;;;;;;;28.73;14.23;;;;;;;;;;2106211;28;20215;-42
2022/12/14 05:57:50;;;;;;;28.63;15.20;;;;;;;;;;2107338;28;20048;-42
2022/12/14 05:58:51;;;;;;;29.75;13.98;;;;;;;;;;2114610;28;20484;-42
2022/12/14 05:59:52;;;;;;;23.77;12.43;;;;;;;;;;2114600;28;20047;-42
2022/12/14 06:00:53;;;;;;;24.00;11.55;;;;;;;;;;2114384;28;20035;-42
2022/12/14 06:01:54;;;;;;;19.50;10.25;;;;;;;;;;2114414;28;20047;-42
2022/12/14 06:02:55;;;;;;;18.80;10.55;;;;;;;;;;2114002;28;20491;-42
2022/12/14 06:03:57;;;;;;;18.53;9.47;;;;;;;;;;2114446;28;20370;-42
2022/12/14 06:04:58;;;;;;;18.90;10.27;;;;;;;;;;2114457;28;20318;-42
2022/12/14 06:06:02;;;;;;;18.47;9.73;;;;;;;;;;2114611;28;20065;-46
2022/12/14 06:07:03;;;;;;;15.48;9.10;;;;;;;;;;2114175;28;20063;-46
2022/12/14 06:08:04;;;;;;;16.98;9.27;;;;;;;;;;2114534;28;20040;-46
2022/12/14 06:09:07;;;;;;;19.85;10.32;;;;;;;;;;2114360;28;20047;-46
2022/12/14 06:10:08;;;;;;;19.30;10.27;;;;;;;;;;2114186;28;20526;-46
2022/12/14 06:11:10;;;;;;;20.88;11.80;;;;;;;;;;2114527;28;20066;-46
2022/12/14 06:12:11;;;;;;;20.98;11.00;;;;;;;;;;2114453;28;20100;-42
2022/12/14 06:13:12;;;;;;;23.58;12.50;;;;;;;;;;2113691;28;20051;-42
2022/12/14 06:14:13;;;;;;;26.70;12.60;;;;;;;;;;2105989;28;20488;-42
2022/12/14 06:15:14;;;;;;;27.60;13.93;;;;;;;;;;2105997;28;20058;-42
2022/12/14 06:16:16;;;;;;;28.07;14.67;;;;;;;;;;2105929;28;20048;-42
2022/12/14 06:17:17;;;;;;;28.77;14.98;;;;;;;;;;2105943;28;20109;-42
2022/12/14 06:18:18;;;;;;;37.88;17.27;;;;;;;;;;2105798;28;20135;-42
2022/12/14 06:19:19;;;;;;;35.20;15.65;;;;;;;;;;2106242;28;20098;-42
2022/12/14 06:20:20;;;;;;;36.93;16.57;;;;;;;;;;2105893;28;20492;-42
2022/12/14 06:21:22;;;;;;;34.97;16.10;;;;;;;;;;2105825;28;20485;-42
2022/12/14 06:22:23;;;;;;;;;;;;;;;;;;2106322;28;20102;-42
2022/12/14 06:23:24;;;;;;;26.60;12.73;;;;;;;;;;2105892;28;20438;-42
2022/12/14 06:24:26;;;;;;;34.78;15.60;;;;;;;;;;2105851;28;20516;-42
2022/12/14 06:25:27;;;;;;;29.80;15.65;;;;;;;;;;2105846;28;20044;-42
2022/12/14 06:26:29;;;;;;;30.70;14.90;;;;;;;;;;2105836;28;20052;-42
2022/12/14 06:27:30;;;;;;;32.63;15.63;;;;;;;;;;2105636;28;20464;-45
2022/12/14 06:28:31;;;;;;;32.27;16.57;;;;;;;;;;2105934;28;20048;-45
2022/12/14 06:29:32;;;;;;;40.20;19.17;;;;;;;;;;2105898;28;20048;-46
2022/12/14 06:30:33;;;;;;;35.25;17.08;;;;;;;;;;2105902;28;20070;-46
2022/12/14 06:31:34;;;;;;;32.17;17.13;;;;;;;;;;2105866;28;20500;-46
2022/12/14 06:32:35;;;;;;;37.28;18.15;;;;;;;;;;2108628;28;20045;-46
2022/12/14 06:33:36;;;;;;;40.83;19.13;;;;;;;;;;2114160;28;20044;-43
2022/12/14 06:34:37;;;;;;;34.40;16.55;;;;;;;;;;2113483;28;20101;-47
2022/12/14 06:35:43;;;;;;;35.95;16.77;;;;;;;;;;2113565;28;20052;-46
2022/12/14 06:36:45;;;;;;;32.30;16.88;;;;;;;;;;2113464;28;20483;-44
2022/12/14 06:37:46;;;;;;;31.63;16.02;;;;;;;;;;2112939;28;20512;-42
2022/12/14 06:38:49;;;;;;;28.42;15.10;;;;;;;;;;2113258;28;20396;-42
2022/12/14 06:39:51;;;;;;;38.20;17.60;;;;;;;;;;2114130;28;20510;-42
2022/12/14 06:40:55;;;;;;;32.63;16.77;;;;;;;;;;2114157;28;20487;-46
2022/12/14 06:41:56;;;;;;;34.83;17.67;;;;;;;;;;2114347;28;20043;-46
2022/12/14 06:42:57;;;;;;;33.83;17.80;;;;;;;;;;2114248;28;20055;-46
2022/12/14 06:44:03;;;;;;;43.25;19.30;;;;;;;;;;2114179;28;20547;-45
2022/12/14 06:45:05;;;;;;;37.72;18.83;;;;;;;;;;2114227;28;20059;-46
2022/12/14 06:46:07;;;;;;;37.30;19.20;;;;;;;;;;2114141;28;20071;-42
2022/12/14 06:47:16;;;;;;;34.78;18.42;;;;;;;;;;2114188;28;20051;-43
2022/12/14 06:48:16;;;;;;;38.60;17.98;;;;;;;;;;2114102;28;20044;-46
2022/12/14 06:49:18;;;;;;;41.40;17.95;;;;;;;;;;2114333;28;20051;-42
2022/12/14 06:50:18;;;;;;;32.67;16.92;;;;;;;;;;2114183;28;20080;-47
2022/12/14 06:51:20;;;;;;;39.47;16.83;;;;;;;;;;2106924;28;20128;-42
2022/12/14 06:52:21;;;;;;;37.63;18.60;;;;;;;;;;2105616;28;20416;-44
2022/12/14 06:53:27;;;;;;;31.15;15.63;;;;;;;;;;2105954;28;20043;-46
2022/12/14 06:54:29;;;;;;;37.10;18.33;;;;;;;;;;2105804;28;20051;-42
2022/12/14 06:55:31;;;;;;;33.22;17.88;;;;;;;;;;2105742;28;20101;-46
2022/12/14 06:56:36;;;;;;;31.70;17.40;;;;;;;;;;2105696;28;20488;-47
2022/12/14 06:57:37;;;;;;;33.63;16.75;;;;;;;;;;2105733;28;20051;-46
2022/12/14 06:58:38;;;;;;;31.27;17.10;;;;;;;;;;2105722;28;20048;-46
2022/12/14 06:59:39;;;;;;;35.45;17.25;;;;;;;;;;2105670;28;20133;-43
2022/12/14 07:00:40;;;;;;;28.92;13.65;;;;;;;;;;2105808;28;20105;-46
2022/12/14 07:01:41;;;;;;;32.08;16.13;;;;;;;;;;2105643;28;20139;-42
2022/12/14 07:02:42;;;;;;;35.45;17.45;;;;;;;;;;2113626;28;20048;-43
2022/12/14 07:03:46;;;;;;;33.42;17.60;;;;;;;;;;2114200;28;20035;-48
2022/12/14 07:04:47;;;;;;;30.05;16.17;;;;;;;;;;2114083;28;20653;-42
2022/12/14 07:05:54;;;;;;;34.42;16.65;;;;;;;;;;2114116;28;20404;-47
2022/12/14 07:06:55;;;;;;;34.70;17.23;;;;;;;;;;2114346;28;20046;-47
2022/12/14 07:07:56;;;;;;;28.52;13.82;;;;;;;;;;2114129;28;20190;-48
2022/12/14 07:08:58;;;;;;;35.43;17.93;;;;;;;;;;2114214;28;20051;-47
2022/12/14 07:09:59;;;;;;;34.67;17.90;;;;;;;;;;2107903;28;20052;-47
2022/12/14 07:11:01;;;;;;;32.88;16.35;;;;;;;;;;2105715;28;20048;-46
2022/12/14 07:12:03;;;;;;;33.20;17.27;;;;;;;;;;2105524;28;20048;-42
2022/12/14 11:33:46;;;;;;;22.98;15.06;;;;;;;;;;4259242;27;20651;-45
2022/12/14 11:34:53;;;;;;;25.33;14.30;;;;;;;;;;2129905;27;20053;-46
2022/12/14 11:35:54;;;;;;;30.40;17.83;;;;;;;;;;2129671;27;20435;-46
2022/12/14 11:37:09;;;;;;;27.52;17.88;;;;;;;;;;2129457;27;20407;-46
2022/12/14 11:38:13;;;;;;;50.42;32.03;;;;;;;;;;2129785;27;20055;-46
2022/12/14 11:39:19;;;;;;;32.92;19.08;;;;;;;;;;2129626;27;20051;-46
2022/12/14 11:40:23;;;;;;;77.72;45.00;;;;;;;;;;2129557;27;20452;-46
2022/12/14 11:41:25;;;;;;;25.13;15.48;;;;;;;;;;2129578;27;20043;-46
2022/12/14 11:42:26;;;;;;;;;;;;;;;;;;2130027;27;20050;-47
2022/12/14 11:43:28;;;;;;;42.63;23.67;;;;;;;;;;2129878;27;19925;-46
2022/12/14 11:44:30;;;;;;;47.85;27.98;;;;;;;;;;2129770;27;20088;-48
2022/12/14 11:45:32;;;;;;;36.40;24.33;;;;;;;;;;2129663;27;20039;-47
2022/12/14 11:46:44;;;;;;;34.75;19.13;;;;;;;;;;2129539;27;20046;-46
2022/12/14 11:47:46;;;;;;;25.33;14.88;;;;;;;;;;2129516;27;20051;-45
2022/12/14 11:48:48;;;;;;;23.23;14.27;;;;;;;;;;2129586;27;20161;-46
2022/12/14 11:49:50;;;;;;;18.75;11.63;;;;;;;;;;2129640;27;20090;-45
2022/12/14 11:50:51;;;;;;;;;;;;;;;;;;2129973;27;20043;-46
2022/12/14 11:52:05;;;;;;;22.40;12.10;;;;;;;;;;2129476;27;20014;-46
2022/12/14 11:53:09;;;;;;;24.33;14.68;;;;;;;;;;2129688;27;20054;-47
2022/12/14 11:54:14;;;;;;;19.85;10.23;;;;;;;;;;2129833;27;20103;-46
2022/12/14 11:55:17;;;;;;;15.23;9.98;;;;;;;;;;2129754;27;20039;-46
2022/12/14 11:56:27;;;;;;;14.15;9.35;;;;;;;;;;2129597;27;20046;-45
2022/12/14 11:57:30;;;;;;;16.10;10.55;;;;;;;;;;2129307;27;20042;-47
2022/12/14 11:58:33;;;;;;;22.58;14.35;;;;;;;;;;2129893;27;20095;-47
2022/12/14 11:59:38;;;;;;;24.92;14.65;;;;;;;;;;2129677;27;20035;-46
2022/12/14 12:00:42;;;;;;;22.45;12.35;;;;;;;;;;2129631;27;20511;-46
2022/12/14 12:01:48;;;;;;;31.75;18.75;;;;;;;;;;2129526;27;20548;-47
2022/12/14 12:02:53;;;;;;;18.13;10.82;;;;;;;;;;2129698;27;20487;-48
2022/12/14 12:03:57;;;;;;;38.13;23.08;;;;;;;;;;2129821;27;20043;-43
2022/12/14 12:05:01;;;;;;;24.58;14.50;;;;;;;;;;2129562;27;20072;-45
2022/12/14 12:06:04;;;;;;;25.25;12.90;;;;;;;;;;2129609;27;20055;-43
2022/12/14 12:07:10;;;;;;;14.75;8.70;;;;;;;;;;2129419;27;20380;-43
2022/12/14 12:08:18;;;;;;;12.70;7.68;;;;;;;;;;2129706;27;20043;-44
2022/12/14 12:09:25;;;;;;;11.10;7.75;;;;;;;;;;2129694;27;20047;-43
2022/12/14 12:10:27;;;;;;;14.18;8.88;;;;;;;;;;2129431;27;20055;-43
2022/12/14 12:11:28;;;;;;;;;;;;;;;;;;2130052;27;20047;-43
2022/12/14 12:12:29;;;;;;;16.70;9.77;;;;;;;;;;2130027;27;19920;-43
2022/12/14 12:13:31;;;;;;;14.02;8.32;;;;;;;;;;2129555;27;20043;-42
2022/12/14 12:14:33;;;;;;;13.20;7.10;;;;;;;;;;2129637;27;20059;-43
2022/12/14 12:15:34;;;;;;;;;;;;;;;;;;2129962;27;20055;-43
2022/12/14 12:16:41;;;;;;;14.13;8.77;;;;;;;;;;2129530;27;19946;-43
2022/12/14 12:17:44;;;;;;;13.00;8.02;;;;;;;;;;2129535;27;20051;-46
2022/12/14 12:18:47;;;;;;;14.98;9.38;;;;;;;;;;2129451;27;20066;-46
2022/12/14 12:19:50;;;;;;;16.40;8.10;;;;;;;;;;2129442;27;20111;-46
2022/12/14 12:20:53;;;;;;;11.98;8.30;;;;;;;;;;2129833;27;20050;-45
2022/12/14 12:21:55;;;;;;;21.00;13.98;;;;;;;;;;2129529;27;20380;-43
2022/12/14 12:22:58;;;;;;;18.52;13.20;;;;;;;;;;2129630;27;20479;-51
2022/12/14 12:24:03;;;;;;;13.95;8.43;;;;;;;;;;2129487;27;20054;-47
2022/12/14 12:25:05;;;;;;;12.75;7.60;;;;;;;;;;2129543;27;20075;-46
2022/12/14 12:26:28;;;;;;;12.57;8.27;;;;;;;;;;2129347;27;20111;-47
2022/12/14 12:27:30;;;;;;;10.68;8.13;;;;;;;;;;2129340;27;20627;-45
2022/12/14 12:28:34;;;;;;;10.70;6.57;;;;;;;;;;2129367;27;20268;-46
2022/12/14 12:29:37;;;;;;;10.73;7.15;;;;;;;;;;2129527;27;20058;-46
2022/12/14 12:30:39;;;;;;;10.25;7.72;;;;;;;;;;2129489;27;20047;-46
2022/12/14 12:31:44;;;;;;;12.52;8.00;;;;;;;;;;2128967;27;20054;-46
2022/12/14 12:32:47;;;;;;;14.95;11.02;;;;;;;;;;2129349;27;20467;-45
2022/12/14 12:33:53;;;;;;;17.52;15.32;;;;;;;;;;2123155;28;20518;-46
2022/12/14 12:34:57;;;;;;;15.85;11.40;;;;;;;;;;2123679;28;20057;-46
2022/12/14 12:36:08;;;;;;;17.05;8.52;;;;;;;;;;2123853;28;20047;-46
2022/12/14 12:37:12;;;;;;;18.35;11.88;;;;;;;;;;2123804;28;20407;-43
2022/12/14 12:38:39;;;;;;;11.82;8.00;;;;;;;;;;2123763;28;20051;-43
2022/12/14 12:39:41;;;;;;;11.23;7.43;;;;;;;;;;2123656;28;20058;-43
2022/12/14 12:40:50;;;;;;;16.05;12.93;;;;;;;;;;2123674;28;20043;-42
2022/12/14 12:41:53;;;;;;;12.73;10.02;;;;;;;;;;2123702;28;20047;-42
2022/12/14 12:42:58;;;;;;;11.70;8.95;;;;;;;;;;2123795;28;20170;-43
2022/12/14 12:44:04;;;;;;;13.32;9.75;;;;;;;;;;2123704;28;20294;-42
2022/12/14 12:45:08;;;;;;;13.55;9.85;;;;;;;;;;2124031;28;20051;-42
2022/12/14 12:46:12;;;;;;;17.63;13.63;;;;;;;;;;2123687;28;20058;-42
2022/12/14 12:47:16;;;;;;;13.07;10.30;;;;;;;;;;2123714;28;20457;-42
2022/12/14 12:48:32;;;;;;;15.90;12.80;;;;;;;;;;2123747;28;20043;-42
2022/12/14 12:49:34;;;;;;;15.57;10.52;;;;;;;;;;2123546;28;20066;-42
2022/12/14 12:50:37;;;;;;;12.40;8.98;;;;;;;;;;2123541;28;20058;-42
2022/12/14 12:51:42;;;;;;;11.68;8.27;;;;;;;;;;2123593;28;20292;-46
2022/12/14 12:52:48;;;;;;;12.30;8.82;;;;;;;;;;2123532;28;20099;-46
2022/12/14 12:53:51;;;;;;;13.13;8.73;;;;;;;;;;2123513;28;20048;-47
2022/12/14 12:54:55;;;;;;;13.10;8.52;;;;;;;;;;2123725;28;20062;-47
2022/12/14 12:56:01;;;;;;;14.50;8.73;;;;;;;;;;2123494;28;20051;-46
2022/12/14 12:57:03;;;;;;;16.20;9.70;;;;;;;;;;2123578;28;20044;-48
2022/12/14 12:58:08;;;;;;;14.32;9.10;;;;;;;;;;2123538;28;20050;-46
2022/12/14 12:59:14;;;;;;;10.95;7.32;;;;;;;;;;2123580;28;20046;-49
2022/12/14 13:00:16;;;;;;;14.55;9.07;;;;;;;;;;2123573;28;20051;-47
2022/12/14 13:01:20;;;;;;;25.77;15.27;;;;;;;;;;2123832;28;20042;-43
2022/12/14 13:02:27;;;;;;;17.13;10.93;;;;;;;;;;2123366;28;20047;-43
2022/12/14 13:03:31;;;;;;;55.78;42.53;;;;;;;;;;2123531;28;20038;-43
2022/12/14 13:04:33;;;;;;;19.02;12.02;;;;;;;;;;2123460;28;20522;-43
2022/12/14 13:05:38;;;;;;;26.20;16.52;;;;;;;;;;2123705;28;20047;-48
2022/12/14 13:06:52;;;;;;;12.35;8.10;;;;;;;;;;2123377;28;20071;-48
2022/12/14 13:07:54;;;;;;;11.38;8.15;;;;;;;;;;2123460;28;20059;-46
2022/12/14 13:08:56;;;;;;;55.53;30.38;;;;;;;;;;2123535;28;20055;-47
2022/12/14 13:10:00;;;;;;;14.85;9.38;;;;;;;;;;2123529;28;20047;-47
2022/12/14 13:11:10;;;;;;;26.13;17.48;;;;;;;;;;2123436;28;20096;-46
2022/12/14 13:12:31;;;;;;;48.45;32.10;;;;;;;;;;2123335;28;20059;-48
2022/12/14 13:13:34;;;;;;;84.88;54.72;;;;;;;;;;2123499;28;20039;-49
2022/12/14 13:14:38;;;;;;;53.53;36.47;;;;;;;;;;2123405;28;20035;-49
2022/12/14 13:15:41;;;;;;;19.40;13.63;;;;;;;;;;2123394;28;20384;-49
2022/12/14 13:16:43;;;;;;;16.77;11.50;;;;;;;;;;2123660;28;20049;-43
2022/12/14 13:17:46;;;;;;;17.63;11.30;;;;;;;;;;2123365;28;20422;-43
2022/12/14 13:18:51;;;;;;;15.80;11.57;;;;;;;;;;2123568;28;20323;-43
2022/12/14 13:20:18;;;;;;;18.88;9.77;;;;;;;;;;2123268;28;20187;-43
2022/12/14 13:21:27;;;;;;;16.48;11.43;;;;;;;;;;2123451;28;20043;-45
2022/12/14 13:22:30;;;;;;;15.30;10.93;;;;;;;;;;2123515;28;20047;-44
2022/12/14 13:23:31;;;;;;;17.15;11.57;;;;;;;;;;2123436;28;20043;-45
2022/12/14 13:24:50;;;;;;;15.85;11.48;;;;;;;;;;2123431;28;20054;-44
2022/12/14 13:26:10;;;;;;;18.88;10.85;;;;;;;;;;2123623;28;20054;-47
2022/12/14 13:27:32;;;;;;;15.20;9.73;;;;;;;;;;2123250;28;20043;-46
2022/12/14 13:28:43;;;;;;;12.77;9.35;;;;;;;;;;2123752;28;20062;-47
2022/12/14 13:29:55;;;;;;;16.17;9.32;;;;;;;;;;2123297;28;20441;-47
2022/12/14 13:31:13;;;;;;;16.55;11.50;;;;;;;;;;2123517;28;20043;-47
2022/12/14 13:32:20;;;;;;;18.17;9.70;;;;;;;;;;2114208;28;20142;-45
2022/12/14 13:33:40;;;;;;;22.50;13.80;;;;;;;;;;2115000;28;20054;-44
2022/12/14 13:34:47;;;;;;;20.85;12.05;;;;;;;;;;2098398;28;20047;-44
2022/12/14 13:35:57;;;;;;;33.60;17.08;;;;;;;;;;2114966;28;20142;-44
2022/12/14 13:37:10;;;;;;;28.80;16.27;;;;;;;;;;2114838;28;20047;-45
2022/12/14 13:38:27;;;;;;;24.52;14.13;;;;;;;;;;2114833;28;20047;-44
2022/12/14 13:40:01;;;;;;;28.33;16.42;;;;;;;;;;2115027;28;20047;-44
2022/12/14 13:41:09;;;;;;;28.35;14.60;;;;;;;;;;2114979;28;20047;-45
2022/12/14 13:42:17;;;;;;;29.98;14.10;;;;;;;;;;2114744;28;20052;-44
2022/12/14 13:43:28;;;;;;;20.80;12.23;;;;;;;;;;2114757;28;20047;-44
2022/12/14 13:44:35;;;;;;;28.42;18.45;;;;;;;;;;2114620;28;20043;-45
2022/12/14 13:45:45;;;;;;;27.30;14.27;;;;;;;;;;2114414;28;20058;-46
2022/12/14 13:46:56;;;;;;;34.63;18.02;;;;;;;;;;2114760;28;20043;-47
2022/12/14 13:47:58;;;;;;;31.65;17.88;;;;;;;;;;2114694;28;20048;-48
2022/12/14 13:48:59;;;;;;;;;;;;;;;;;;2115274;28;20100;-46
2022/12/14 13:50:02;;;;;;;33.95;17.70;;;;;;;;;;2114672;28;20265;-46
2022/12/14 13:51:27;;;;;;;35.75;19.10;;;;;;;;;;2114619;28;20519;-46
2022/12/14 13:52:35;;;;;;;37.90;23.48;;;;;;;;;;2114443;28;20408;-47